Terminal Aerodrome Forecast
Issued by NWS

Home | Current Version | Previous Version | Text Only | Print | Product List | Glossary On
Versions: 1 2 3 4 5 6 7 8 9 10 11 12 13 14 15 16 17 18 19
000
FTUS43 KEAX 010500
TAFSTJ
TAF
KSTJ 010520Z 0106/0206 10010KT 5SM -TSRA BKN100CB
      TEMPO 0107/0109 3SM TSRA BR BKN050CB
     FM011100 15010KT P6SM SCT050 BKN200
     FM012100 10008KT P6SM BKN100
     FM020300 05006KT P6SM BKN100=

USA.gov is the U.S. government's official web portal to all federal, state and local government web resources and services.